Time;durP1;ratioP1;P1;durP2;ratioP2;P2;SDS_P1;SDS_P2;PMS_P1;PMS_P2;Temp;Humidity;BMP_temperature;BMP_pressure;BME280_temperature;BME280_humidity;BME280_pressure;Samples;Min_cycle;Max_cycle;Signal;HPM_P1;HPM_P2
2022/01/15 00:00:57;;;;;;;2.25;1.95;;;3.40;73.30;;;;;;5097001;28;20021;-60
2022/01/15 00:03:23;;;;;;;3.00;1.80;;;3.40;73.00;;;;;;5097103;28;20059;-61
2022/01/15 00:05:48;;;;;;;1.70;1.60;;;3.30;73.30;;;;;;5083738;28;20499;-60
2022/01/15 00:08:14;;;;;;;3.38;1.83;;;3.40;72.30;;;;;;5096991;28;20378;-61
2022/01/15 00:10:40;;;;;;;2.92;1.60;;;3.30;71.90;;;;;;5096908;28;20031;-61
2022/01/15 00:13:10;;;;;;;1.55;1.50;;;3.40;71.50;;;;;;5096610;28;20453;-61
2022/01/15 00:15:41;;;;;;;2.22;2.03;;;3.40;71.10;;;;;;5097125;28;20438;-61
2022/01/15 00:18:13;;;;;;;2.30;1.67;;;3.40;70.40;;;;;;5090313;28;20027;-61
2022/01/15 00:20:38;;;;;;;1.80;1.70;;;3.40;70.20;;;;;;5089814;28;20276;-61
2022/01/15 00:23:04;;;;;;;3.60;2.00;;;3.40;70.20;;;;;;5093378;28;20372;-61
2022/01/15 00:25:31;;;;;;;2.08;1.98;;;3.50;70.10;;;;;;5089089;28;20020;-60
2022/01/15 00:27:58;;;;;;;3.03;2.10;;;3.50;70.00;;;;;;5096501;28;20024;-61
2022/01/15 00:30:24;;;;;;;1.83;1.73;;;3.50;69.70;;;;;;5096846;28;20428;-61
2022/01/15 00:32:52;;;;;;;2.42;2.20;;;3.60;69.80;;;;;;5096407;28;20375;-61
2022/01/15 00:35:19;;;;;;;2.70;1.80;;;3.70;69.40;;;;;;5086688;28;20029;-61
2022/01/15 00:37:45;;;;;;;1.65;1.55;;;3.70;69.00;;;;;;5092576;28;20490;-61
2022/01/15 00:40:17;;;;;;;2.22;1.63;;;3.80;69.20;;;;;;5091808;28;20024;-61
2022/01/15 00:42:44;;;;;;;2.45;1.90;;;3.70;68.40;;;;;;5093263;28;20024;-61
2022/01/15 00:45:16;;;;;;;4.05;2.10;;;3.80;68.30;;;;;;5096221;28;20101;-61
2022/01/15 00:47:42;;;;;;;3.70;1.85;;;3.80;68.10;;;;;;5096206;28;20480;-61
2022/01/15 00:50:09;;;;;;;3.00;1.70;;;3.80;67.90;;;;;;5096180;28;20031;-61
2022/01/15 00:52:35;;;;;;;1.83;1.63;;;3.70;68.10;;;;;;5096264;28;20020;-61
2022/01/15 00:55:02;;;;;;;2.40;1.80;;;3.80;68.30;;;;;;5106312;28;20464;-61
2022/01/15 00:57:27;;;;;;;3.30;2.13;;;3.80;68.30;;;;;;5095255;28;20031;-61
2022/01/15 00:59:53;;;;;;;3.03;2.10;;;3.80;68.00;;;;;;5082813;28;20029;-61
2022/01/15 01:02:19;;;;;;;3.65;1.98;;;3.80;68.10;;;;;;5095948;28;20024;-60
2022/01/15 01:04:45;;;;;;;2.80;2.40;;;3.80;68.20;;;;;;5094917;28;20024;-61
2022/01/15 01:07:10;;;;;;;3.03;2.00;;;3.80;68.30;;;;;;5095836;28;20090;-61
2022/01/15 01:12:24;;;;;;;2.03;1.92;;;3.80;68.80;;;;;;5095738;28;20042;-61
2022/01/15 01:20:26;;;;;;;3.50;2.53;;;3.70;69.60;;;;;;5095776;28;20538;-61
2022/01/15 01:22:57;;;;;;;4.05;2.13;;;3.70;69.90;;;;;;5095064;28;20475;-61
2022/01/15 01:25:27;;;;;;;4.55;2.10;;;3.60;69.90;;;;;;5086493;28;20071;-61
2022/01/15 01:27:56;;;;;;;2.70;2.28;;;3.60;70.00;;;;;;5091962;28;20383;-61
2022/01/15 01:30:31;;;;;;;3.80;2.33;;;3.60;70.60;;;;;;5085882;28;20028;-61
2022/01/15 01:33:46;;;;;;;5.57;2.70;;;3.60;71.20;;;;;;5096369;28;20499;-60
2022/01/15 01:35:47;;;;;;;5.25;2.45;;;3.50;71.40;;;;;;5087628;28;20502;-60
2022/01/15 01:38:21;;;;;;;4.55;2.30;;;3.40;71.50;;;;;;5105623;28;20103;-61
2022/01/15 01:40:50;;;;;;;3.58;2.20;;;3.40;71.60;;;;;;5094917;28;20063;-60
2022/01/15 01:45:53;;;;;;;2.50;2.30;;;3.30;71.80;;;;;;5081848;28;20035;-61
2022/01/15 01:48:18;;;;;;;3.45;2.58;;;3.30;71.80;;;;;;5089247;28;20037;-61
2022/01/15 01:50:44;;;;;;;3.53;2.75;;;3.30;71.70;;;;;;5092920;28;20175;-60
2022/01/15 01:53:10;;;;;;;2.88;2.20;;;3.30;71.30;;;;;;5092723;28;20512;-61
2022/01/15 01:55:37;;;;;;;4.25;2.28;;;3.30;71.10;;;;;;5084999;28;20031;-61
2022/01/15 01:58:02;;;;;;;3.78;2.10;;;3.30;70.80;;;;;;5085074;28;20031;-61
2022/01/15 02:00:30;;;;;;;2.35;2.10;;;3.30;70.40;;;;;;5092421;28;20051;-61
2022/01/15 02:02:57;;;;;;;2.60;2.30;;;3.30;70.40;;;;;;5083779;28;20039;-61
2022/01/15 02:05:23;;;;;;;3.63;2.33;;;3.30;70.20;;;;;;5090261;28;20491;-61
2022/01/15 02:07:49;;;;;;;3.83;2.03;;;3.30;70.10;;;;;;5094580;28;20024;-61
2022/01/15 02:10:17;;;;;;;2.45;2.25;;;3.30;70.20;;;;;;5092799;28;20038;-61
2022/01/15 02:12:45;;;;;;;5.28;2.38;;;3.30;70.30;;;;;;5085105;28;20020;-61
2022/01/15 02:15:16;;;;;;;3.97;2.08;;;3.30;70.70;;;;;;5094992;28;20020;-61
2022/01/15 02:17:44;;;;;;;3.95;2.10;;;3.30;71.00;;;;;;5094626;28;20027;-61
2022/01/15 02:20:24;;;;;;;3.03;2.10;;;3.30;71.30;;;;;;5094425;28;20082;-61
2022/01/15 02:25:44;;;;;;;3.90;2.22;;;3.30;71.60;;;;;;5080973;28;20097;-60
2022/01/15 02:28:10;;;;;;;4.93;2.30;;;3.30;71.70;;;;;;5091271;28;20361;-60
2022/01/15 02:30:36;;;;;;;5.05;2.55;;;3.30;71.80;;;;;;5085430;28;20028;-61
2022/01/15 02:33:03;;;;;;;3.20;2.42;;;3.30;71.90;;;;;;5086944;28;20079;-61
2022/01/15 02:35:29;;;;;;;3.67;2.55;;;3.30;71.90;;;;;;5089577;28;20467;-61
2022/01/15 02:38:04;;;;;;;3.40;2.60;;;3.30;71.90;;;;;;5095805;28;20480;-61
2022/01/15 02:40:33;;;;;;;3.45;2.65;;;3.30;72.60;;;;;;5082333;28;20023;-61
2022/01/15 02:43:05;;;;;;;3.67;2.50;;;3.30;71.90;;;;;;5094361;28;20078;-61
2022/01/15 02:45:34;;;;;;;3.53;2.30;;;3.20;71.80;;;;;;5093945;28;20090;-61
2022/01/15 02:48:30;;;;;;;2.42;2.20;;;3.20;72.00;;;;;;5094062;28;20392;-60
2022/01/15 02:50:56;;;;;;;4.15;2.20;;;3.20;72.00;;;;;;5088883;28;20085;-61
2022/01/15 02:53:22;;;;;;;2.08;1.95;;;3.20;72.00;;;;;;5093500;28;20063;-61
2022/01/15 02:55:51;;;;;;;3.08;1.88;;;3.20;72.10;;;;;;5092021;28;20495;-61
2022/01/15 02:58:19;;;;;;;2.97;1.92;;;3.20;72.10;;;;;;5085641;28;20020;-60
2022/01/15 03:00:46;;;;;;;2.90;2.20;;;3.20;71.90;;;;;;5084305;28;20035;-61
2022/01/15 03:03:12;;;;;;;3.45;1.90;;;3.10;71.70;;;;;;5075429;28;20384;-61
2022/01/15 03:05:37;;;;;;;2.80;2.10;;;3.20;71.80;;;;;;5093626;28;20028;-60
2022/01/15 03:08:04;;;;;;;2.13;1.88;;;3.20;71.60;;;;;;5093788;28;20052;-61
2022/01/15 03:10:29;;;;;;;2.55;2.10;;;3.20;71.60;;;;;;5093523;28;20411;-61
2022/01/15 03:12:57;;;;;;;4.47;2.38;;;3.20;72.10;;;;;;5090814;28;20058;-61
2022/01/15 03:15:23;;;;;;;2.03;1.83;;;3.20;71.40;;;;;;5083513;28;20020;-61
2022/01/15 03:17:49;;;;;;;2.00;1.80;;;3.20;71.10;;;;;;5093358;28;20032;-61
2022/01/15 03:20:17;;;;;;;3.00;2.17;;;3.20;70.90;;;;;;5093318;28;20024;-61
2022/01/15 03:22:44;;;;;;;2.38;1.90;;;3.20;70.90;;;;;;5093324;28;20490;-61
2022/01/15 03:25:11;;;;;;;5.13;2.13;;;3.20;70.70;;;;;;5093377;28;20035;-61
2022/01/15 03:27:37;;;;;;;2.15;1.90;;;3.20;70.30;;;;;;5092617;28;20023;-61
2022/01/15 03:30:06;;;;;;;4.00;2.47;;;3.20;70.20;;;;;;5092061;28;20421;-61
2022/01/15 03:32:31;;;;;;;2.88;2.20;;;3.20;70.10;;;;;;5089716;28;20634;-61
2022/01/15 03:34:57;;;;;;;1.90;1.75;;;3.20;69.90;;;;;;5085361;28;20102;-61
2022/01/15 03:37:23;;;;;;;3.10;1.80;;;3.20;69.60;;;;;;5081065;28;20038;-61
2022/01/15 03:39:49;;;;;;;2.20;2.00;;;3.20;69.60;;;;;;5086463;28;20031;-60
2022/01/15 03:42:15;;;;;;;2.88;2.15;;;3.30;70.00;;;;;;5093131;28;20020;-60
2022/01/15 03:44:45;;;;;;;2.92;1.90;;;3.30;69.20;;;;;;5093277;28;20024;-61
2022/01/15 03:47:12;;;;;;;2.17;1.83;;;3.30;69.10;;;;;;5088222;28;20032;-61
2022/01/15 03:49:39;;;;;;;2.95;1.80;;;3.30;69.10;;;;;;5085429;28;20032;-61
2022/01/15 03:52:06;;;;;;;1.92;1.73;;;3.40;69.00;;;;;;5092954;28;20383;-60
2022/01/15 03:54:31;;;;;;;2.13;1.92;;;3.40;68.80;;;;;;5092982;28;20031;-60
2022/01/15 03:56:57;;;;;;;2.05;1.80;;;3.40;68.90;;;;;;5092797;28;20376;-60
2022/01/15 03:59:23;;;;;;;2.00;1.90;;;3.40;69.20;;;;;;5079194;28;20099;-61
2022/01/15 04:01:49;;;;;;;1.92;1.83;;;3.40;69.40;;;;;;5093001;28;20027;-61
2022/01/15 04:04:16;;;;;;;2.00;1.80;;;3.40;69.50;;;;;;5088438;28;20060;-61
2022/01/15 04:06:42;;;;;;;2.00;1.75;;;3.50;69.50;;;;;;5091649;28;20028;-60
2022/01/15 04:09:09;;;;;;;2.25;2.00;;;3.40;69.60;;;;;;5091349;28;20020;-61
2022/01/15 04:11:34;;;;;;;1.80;1.70;;;3.50;69.60;;;;;;5091823;28;20028;-61
2022/01/15 04:14:01;;;;;;;2.33;2.10;;;3.40;69.80;;;;;;5091763;28;20020;-61
2022/01/15 04:16:29;;;;;;;2.92;2.03;;;3.40;70.10;;;;;;5091430;28;20020;-60
2022/01/15 04:18:58;;;;;;;3.30;2.10;;;3.40;69.90;;;;;;5092641;28;20020;-60
2022/01/15 04:21:24;;;;;;;2.63;2.00;;;3.40;70.00;;;;;;5091866;28;20440;-61
2022/01/15 04:23:50;;;;;;;2.33;2.00;;;3.40;70.00;;;;;;5092731;28;20025;-61
2022/01/15 04:26:18;;;;;;;4.60;2.22;;;3.40;70.10;;;;;;5092451;28;20126;-61
2022/01/15 04:28:44;;;;;;;2.20;2.10;;;3.40;69.90;;;;;;5084622;28;20043;-59
2022/01/15 04:31:09;;;;;;;3.08;1.95;;;3.40;70.00;;;;;;5092423;28;20020;-61
2022/01/15 04:33:37;;;;;;;3.35;1.95;;;3.40;70.00;;;;;;5091880;28;20491;-61
2022/01/15 04:36:05;;;;;;;3.38;2.15;;;3.40;70.00;;;;;;5092505;28;20017;-61
2022/01/15 04:38:34;;;;;;;2.55;2.15;;;3.40;70.00;;;;;;5090767;28;20024;-61
2022/01/15 04:40:59;;;;;;;3.28;2.45;;;3.40;69.70;;;;;;5089906;28;20029;-60
2022/01/15 04:43:25;;;;;;;4.72;2.15;;;3.40;69.80;;;;;;5079359;28;20357;-61
2022/01/15 04:45:51;;;;;;;4.35;2.30;;;3.40;69.80;;;;;;5096289;28;20028;-61
2022/01/15 04:48:17;;;;;;;3.97;2.10;;;3.40;69.70;;;;;;5096210;28;20034;-61
2022/01/15 04:50:42;;;;;;;3.33;2.53;;;3.40;69.70;;;;;;5096197;28;20020;-61
2022/01/15 04:53:09;;;;;;;4.22;2.80;;;3.40;69.70;;;;;;5096351;28;20106;-60
2022/01/15 04:55:36;;;;;;;3.55;2.60;;;3.40;69.90;;;;;;5094642;28;20248;-61
2022/01/15 04:58:02;;;;;;;5.38;3.38;;;3.30;70.00;;;;;;5092607;28;20017;-61
2022/01/15 05:00:28;;;;;;;3.95;2.70;;;3.40;70.10;;;;;;5086057;28;20016;-61
2022/01/15 05:02:54;;;;;;;6.30;3.00;;;3.40;70.10;;;;;;5095914;28;20070;-60
2022/01/15 05:05:19;;;;;;;4.32;2.60;;;3.40;70.20;;;;;;5096014;28;20019;-60
2022/01/15 05:07:45;;;;;;;4.00;2.80;;;3.40;70.10;;;;;;5095832;28;20024;-61
2022/01/15 05:10:14;;;;;;;5.18;2.42;;;3.40;70.00;;;;;;5095994;28;20052;-61
2022/01/15 05:12:44;;;;;;;2.67;2.13;;;3.40;69.80;;;;;;5089087;28;20025;-61
2022/01/15 05:15:12;;;;;;;5.82;2.67;;;3.40;70.00;;;;;;5095724;28;20035;-61
2022/01/15 05:17:38;;;;;;;4.22;2.75;;;3.50;70.10;;;;;;5095858;28;20399;-61
2022/01/15 05:20:05;;;;;;;2.95;2.60;;;3.50;69.90;;;;;;5095535;28;20031;-61
2022/01/15 05:22:32;;;;;;;3.47;2.05;;;3.50;70.10;;;;;;5095491;28;20036;-61
2022/01/15 05:24:58;;;;;;;2.13;1.83;;;3.50;69.80;;;;;;5095457;28;20109;-61
2022/01/15 05:27:23;;;;;;;2.28;2.08;;;3.50;69.70;;;;;;5094729;28;20052;-61
2022/01/15 05:29:49;;;;;;;2.28;1.98;;;3.60;69.60;;;;;;5078717;28;20033;-61
2022/01/15 05:32:15;;;;;;;2.17;1.85;;;3.60;69.60;;;;;;5096176;28;20106;-61
2022/01/15 05:34:40;;;;;;;2.35;1.65;;;3.60;69.40;;;;;;5095410;28;20032;-61
2022/01/15 05:37:06;;;;;;;1.88;1.77;;;3.60;69.10;;;;;;5095530;28;20487;-61
2022/01/15 05:39:32;;;;;;;1.90;1.80;;;3.60;69.20;;;;;;5095239;28;20020;-60
2022/01/15 05:41:57;;;;;;;3.38;1.85;;;3.60;69.20;;;;;;5095478;28;20016;-61
2022/01/15 05:44:23;;;;;;;3.95;2.30;;;3.60;69.10;;;;;;5095125;28;20028;-60
2022/01/15 05:46:49;;;;;;;2.10;1.80;;;3.70;69.10;;;;;;5088840;28;20023;-61
2022/01/15 05:49:14;;;;;;;2.78;1.90;;;3.70;69.10;;;;;;5075495;28;20055;-61
2022/01/15 05:51:40;;;;;;;2.92;2.00;;;3.70;68.60;;;;;;5094438;28;20534;-61
2022/01/15 05:54:10;;;;;;;3.20;2.40;;;3.80;68.60;;;;;;5094939;28;20028;-61
2022/01/15 05:56:37;;;;;;;2.63;2.30;;;3.80;68.50;;;;;;5095252;28;20024;-61
2022/01/15 05:59:03;;;;;;;4.05;2.90;;;3.80;68.40;;;;;;5081137;28;20507;-61
2022/01/15 06:01:29;;;;;;;5.13;2.83;;;3.90;68.10;;;;;;5094868;28;20273;-61
2022/01/15 06:03:55;;;;;;;3.15;2.42;;;3.90;68.00;;;;;;5083969;28;20028;-60
2022/01/15 06:06:21;;;;;;;4.88;2.60;;;3.90;67.70;;;;;;5094568;28;20073;-61
2022/01/15 06:08:47;;;;;;;4.53;2.42;;;3.90;67.60;;;;;;5094956;28;20467;-61
2022/01/15 06:11:17;;;;;;;4.20;2.60;;;4.00;67.50;;;;;;5094538;28;20070;-61
2022/01/15 06:13:44;;;;;;;3.35;2.00;;;4.00;67.50;;;;;;5094805;28;20380;-60
2022/01/15 06:16:10;;;;;;;5.75;2.80;;;4.00;67.30;;;;;;5094472;28;20016;-61
2022/01/15 06:18:36;;;;;;;3.63;2.67;;;4.00;67.20;;;;;;5094436;28;20032;-61
2022/01/15 06:21:02;;;;;;;3.65;2.60;;;4.00;67.10;;;;;;5087112;28;20040;-60
2022/01/15 06:23:27;;;;;;;3.05;2.47;;;4.00;67.00;;;;;;5094318;28;20040;-61
2022/01/15 06:25:53;;;;;;;3.70;2.58;;;4.10;67.00;;;;;;5094460;28;20463;-61
2022/01/15 06:28:19;;;;;;;2.60;2.40;;;4.10;66.90;;;;;;5094253;28;20020;-61
2022/01/15 06:30:45;;;;;;;2.58;2.30;;;4.10;66.80;;;;;;5079982;28;20043;-60
2022/01/15 06:33:10;;;;;;;3.83;2.50;;;4.10;66.70;;;;;;5105145;28;20024;-61
2022/01/15 06:35:36;;;;;;;5.45;2.60;;;4.10;66.70;;;;;;5087519;28;20123;-61
2022/01/15 06:38:02;;;;;;;4.53;2.42;;;4.10;66.60;;;;;;5089193;28;20020;-61
2022/01/15 06:40:28;;;;;;;3.50;2.42;;;4.20;67.20;;;;;;5094154;28;20030;-61
2022/01/15 06:42:53;;;;;;;2.88;2.40;;;4.20;66.50;;;;;;5093999;28;20446;-61
2022/01/15 06:45:19;;;;;;;2.92;2.40;;;4.20;66.10;;;;;;5093992;28;20020;-61
2022/01/15 06:47:45;;;;;;;2.30;2.10;;;4.20;65.80;;;;;;5093883;28;20020;-61
2022/01/15 06:50:11;;;;;;;4.18;2.05;;;4.20;65.60;;;;;;5093856;28;20082;-61
2022/01/15 06:52:38;;;;;;;1.80;1.70;;;4.20;65.50;;;;;;5086435;28;20020;-61
2022/01/15 06:55:06;;;;;;;2.28;2.08;;;4.30;65.50;;;;;;5084279;28;20383;-60
2022/01/15 06:57:32;;;;;;;2.42;2.08;;;4.30;65.10;;;;;;5093207;28;20058;-60
2022/01/15 06:59:58;;;;;;;2.33;1.77;;;4.30;65.40;;;;;;5093774;28;20024;-61
2022/01/15 07:02:24;;;;;;;3.00;1.98;;;4.30;65.20;;;;;;5092909;28;20499;-61
2022/01/15 07:04:50;;;;;;;2.53;2.20;;;4.40;65.10;;;;;;5093648;28;20020;-61
2022/01/15 07:07:16;;;;;;;3.17;2.33;;;4.40;65.00;;;;;;5093538;28;20464;-61
2022/01/15 07:09:41;;;;;;;3.45;2.58;;;4.40;65.10;;;;;;5070985;28;20162;-61
2022/01/15 07:12:07;;;;;;;5.13;2.75;;;4.50;65.20;;;;;;5085871;28;20036;-61
2022/01/15 07:14:33;;;;;;;4.65;2.63;;;4.50;65.10;;;;;;5093630;28;20101;-60
2022/01/15 07:16:59;;;;;;;2.97;2.47;;;4.50;65.10;;;;;;5090088;28;20063;-61
2022/01/15 07:19:25;;;;;;;3.25;2.40;;;4.50;65.00;;;;;;5090443;28;20024;-61
2022/01/15 07:21:51;;;;;;;3.92;2.35;;;4.50;65.00;;;;;;5089593;28;20407;-61
2022/01/15 07:24:16;;;;;;;3.40;2.53;;;4.60;65.20;;;;;;5076460;28;20039;-61
2022/01/15 07:26:43;;;;;;;3.28;2.60;;;4.60;65.10;;;;;;5075383;28;20025;-59
2022/01/15 07:29:15;;;;;;;4.38;2.88;;;4.60;65.10;;;;;;5085883;28;20028;-61
2022/01/15 07:31:42;;;;;;;2.50;2.22;;;4.60;64.90;;;;;;5082417;28;20015;-61
2022/01/15 07:34:08;;;;;;;2.95;2.40;;;4.60;64.70;;;;;;5088684;28;20365;-60
2022/01/15 07:36:34;;;;;;;3.92;2.80;;;4.70;64.60;;;;;;5089846;28;20369;-61
2022/01/15 07:39:00;;;;;;;3.25;2.58;;;4.70;64.30;;;;;;5079952;28;20074;-61
2022/01/15 07:41:26;;;;;;;4.18;2.50;;;4.70;64.30;;;;;;5088254;28;20029;-61
2022/01/15 07:43:52;;;;;;;2.85;2.35;;;4.70;64.30;;;;;;5089166;28;20111;-61
2022/01/15 07:46:17;;;;;;;3.13;2.50;;;4.70;64.20;;;;;;5082160;28;20032;-61
2022/01/15 07:48:43;;;;;;;4.93;2.67;;;4.70;64.20;;;;;;5083861;28;20503;-61
2022/01/15 07:51:09;;;;;;;2.92;2.40;;;4.80;64.20;;;;;;5092504;28;20081;-61
2022/01/15 07:53:34;;;;;;;3.63;2.70;;;4.70;64.00;;;;;;5092908;28;20020;-61
2022/01/15 07:56:00;;;;;;;4.78;2.65;;;4.70;63.80;;;;;;5082546;28;20539;-61
2022/01/15 07:58:26;;;;;;;3.58;2.30;;;4.80;63.70;;;;;;5084527;28;20040;-61
2022/01/15 08:00:51;;;;;;;3.85;2.60;;;4.80;63.80;;;;;;5082358;28;20020;-62
2022/01/15 08:03:17;;;;;;;3.05;2.15;;;4.80;63.80;;;;;;5081465;28;20595;-59
2022/01/15 08:05:43;;;;;;;3.55;2.30;;;4.90;63.30;;;;;;5087979;28;20064;-60
2022/01/15 08:08:09;;;;;;;3.60;2.45;;;4.90;63.20;;;;;;5079207;28;20110;-60
2022/01/15 08:10:35;;;;;;;3.88;2.63;;;4.90;63.10;;;;;;5091487;28;20539;-60
2022/01/15 08:13:01;;;;;;;3.63;2.05;;;5.00;62.70;;;;;;5090811;28;20035;-60
2022/01/15 08:15:28;;;;;;;2.88;2.08;;;5.00;62.70;;;;;;5094393;28;20028;-60
2022/01/15 08:17:53;;;;;;;2.40;2.20;;;5.00;62.40;;;;;;5095215;28;20027;-60
2022/01/15 08:20:19;;;;;;;2.30;2.10;;;5.00;62.50;;;;;;5092828;28;20492;-60
2022/01/15 08:22:45;;;;;;;2.50;2.28;;;5.10;62.40;;;;;;5095027;28;20028;-60
2022/01/15 08:25:18;;;;;;;2.00;1.80;;;5.10;62.30;;;;;;5093746;28;20028;-60
2022/01/15 08:27:47;;;;;;;2.30;1.92;;;5.10;62.00;;;;;;5097027;28;20042;-60
2022/01/15 08:30:13;;;;;;;3.20;2.47;;;5.20;61.90;;;;;;5096668;28;20464;-61
2022/01/15 08:32:39;;;;;;;2.40;2.20;;;5.20;61.90;;;;;;5096907;28;20024;-61
2022/01/15 08:35:06;;;;;;;2.17;2.00;;;5.20;61.80;;;;;;5096429;28;20066;-61
2022/01/15 08:37:32;;;;;;;3.53;2.38;;;5.20;61.40;;;;;;5093040;28;20039;-59
2022/01/15 08:39:58;;;;;;;2.33;2.10;;;5.30;61.60;;;;;;5096420;28;20051;-60
2022/01/15 08:42:24;;;;;;;1.95;1.77;;;5.30;61.50;;;;;;5096445;28;20047;-60
2022/01/15 08:44:51;;;;;;;1.75;1.65;;;5.30;61.40;;;;;;5096476;28;20027;-61
2022/01/15 08:47:17;;;;;;;2.22;1.67;;;5.30;61.20;;;;;;5096265;28;20036;-60
2022/01/15 08:49:43;;;;;;;3.50;1.85;;;5.30;61.10;;;;;;5096209;28;20024;-61
2022/01/15 08:52:09;;;;;;;2.08;1.80;;;5.30;61.10;;;;;;5096218;28;20380;-61
2022/01/15 08:54:35;;;;;;;1.60;1.50;;;5.30;60.90;;;;;;5085518;28;20024;-61
2022/01/15 08:57:00;;;;;;;1.83;1.60;;;5.30;60.70;;;;;;5078839;28;20115;-61
2022/01/15 08:59:27;;;;;;;1.40;1.30;;;5.30;60.90;;;;;;5089392;28;20024;-61
2022/01/15 09:01:55;;;;;;;1.50;1.48;;;5.30;60.80;;;;;;5094937;28;20190;-60
2022/01/15 09:04:21;;;;;;;1.65;1.48;;;5.30;60.70;;;;;;5086193;28;20051;-61
2022/01/15 09:06:47;;;;;;;1.77;1.35;;;5.40;60.80;;;;;;5092914;28;20133;-61
2022/01/15 09:09:12;;;;;;;2.25;2.05;;;5.40;60.50;;;;;;5099723;28;20054;-60
2022/01/15 09:11:38;;;;;;;2.13;1.90;;;5.40;60.30;;;;;;5084085;28;20063;-61
2022/01/15 09:14:04;;;;;;;2.25;2.05;;;5.40;60.20;;;;;;5095357;28;20468;-61
2022/01/15 09:16:30;;;;;;;2.38;2.17;;;5.40;60.00;;;;;;5095700;28;20033;-61
2022/01/15 09:18:56;;;;;;;2.40;2.20;;;5.40;60.70;;;;;;5095909;28;20059;-60
2022/01/15 09:21:23;;;;;;;2.42;1.80;;;5.40;60.20;;;;;;5095337;28;20048;-61
2022/01/15 09:23:49;;;;;;;4.00;2.45;;;5.40;60.00;;;;;;5083020;28;20039;-61
2022/01/15 09:26:35;;;;;;;2.58;2.20;;;5.50;60.10;;;;;;5080291;28;20472;-61
2022/01/15 09:31:45;;;;;;;2.97;2.13;;;5.50;60.20;;;;;;5095017;28;20106;-61
2022/01/15 09:34:10;;;;;;;3.33;2.33;;;5.40;60.10;;;;;;5095379;28;20063;-60
2022/01/15 09:36:36;;;;;;;5.35;2.80;;;5.40;60.00;;;;;;5095320;28;20024;-60
2022/01/15 09:39:02;;;;;;;3.03;2.33;;;5.40;60.10;;;;;;5094307;28;20020;-61
2022/01/15 09:41:29;;;;;;;2.88;2.17;;;5.40;60.10;;;;;;5095504;28;20389;-61
2022/01/15 09:43:56;;;;;;;2.95;2.60;;;5.40;60.20;;;;;;5093069;28;20040;-61
2022/01/15 09:46:22;;;;;;;2.75;2.33;;;5.40;60.30;;;;;;5091671;28;20024;-61
2022/01/15 09:48:48;;;;;;;3.47;2.28;;;5.40;60.30;;;;;;5095211;28;20111;-61
2022/01/15 09:51:14;;;;;;;3.92;2.78;;;5.40;60.40;;;;;;5094996;28;20111;-61
2022/01/15 09:53:41;;;;;;;3.47;2.45;;;5.40;60.50;;;;;;5094903;28;20453;-61
2022/01/15 09:56:07;;;;;;;4.10;2.95;;;5.40;60.80;;;;;;5081645;28;20032;-61
2022/01/15 09:58:33;;;;;;;6.38;2.80;;;5.50;60.90;;;;;;5089301;28;20024;-61
2022/01/15 10:00:59;;;;;;;3.90;2.75;;;5.40;60.90;;;;;;5092852;28;20042;-60
2022/01/15 10:03:25;;;;;;;4.38;2.72;;;5.40;60.90;;;;;;5094899;28;20383;-61
2022/01/15 10:05:50;;;;;;;4.10;2.45;;;5.40;60.80;;;;;;5093429;28;20020;-58
2022/01/15 10:08:20;;;;;;;4.18;2.35;;;5.40;60.70;;;;;;5081168;28;20099;-61
2022/01/15 10:10:50;;;;;;;2.47;2.00;;;5.40;60.70;;;;;;5078986;28;20028;-60
2022/01/15 10:13:22;;;;;;;1.60;1.50;;;5.40;60.80;;;;;;5094910;28;20024;-61
2022/01/15 10:16:08;;;;;;;1.50;1.40;;;5.40;60.90;;;;;;5094816;28;20038;-61
2022/01/15 10:18:42;;;;;;;1.65;1.52;;;5.40;61.00;;;;;;5072633;28;20119;-61
2022/01/15 10:21:20;;;;;;;2.13;2.00;;;5.40;60.90;;;;;;5092987;28;20048;-61
2022/01/15 10:23:55;;;;;;;2.30;2.08;;;5.40;60.80;;;;;;5094615;28;20364;-61
2022/01/15 10:26:36;;;;;;;2.15;2.00;;;5.40;61.00;;;;;;5080507;28;20379;-61
2022/01/15 10:29:07;;;;;;;2.22;2.03;;;5.40;61.00;;;;;;5094335;28;20036;-61
2022/01/15 10:31:42;;;;;;;2.40;2.20;;;5.40;61.00;;;;;;5098361;28;20054;-61
2022/01/15 10:34:26;;;;;;;2.85;2.20;;;5.40;61.10;;;;;;5101275;28;20024;-61
2022/01/15 10:36:58;;;;;;;2.53;1.95;;;5.40;61.20;;;;;;5084283;28;20468;-61
2022/01/15 10:39:24;;;;;;;2.83;2.10;;;5.40;61.20;;;;;;5094086;28;20416;-61
2022/01/15 10:41:49;;;;;;;3.22;2.17;;;5.40;61.60;;;;;;5094209;28;20107;-61
2022/01/15 10:44:33;;;;;;;3.00;2.33;;;5.40;61.60;;;;;;5093968;28;20059;-61
2022/01/15 10:47:12;;;;;;;3.13;2.40;;;5.40;61.80;;;;;;5094283;28;20030;-61
2022/01/15 10:49:39;;;;;;;5.30;2.45;;;5.40;62.00;;;;;;5094078;28;20031;-61
2022/01/15 10:52:18;;;;;;;4.60;2.78;;;5.40;62.20;;;;;;5089812;28;20070;-61
2022/01/15 10:54:59;;;;;;;4.72;2.65;;;5.40;62.30;;;;;;5077193;28;20759;-61
2022/01/15 10:57:29;;;;;;;3.75;2.85;;;5.40;62.40;;;;;;5085511;28;20235;-61
2022/01/15 10:59:58;;;;;;;4.32;2.58;;;5.40;62.60;;;;;;5094234;28;20028;-61
2022/01/15 11:02:24;;;;;;;3.67;2.63;;;5.40;62.80;;;;;;5093796;28;20020;-61
2022/01/15 11:04:49;;;;;;;4.32;2.38;;;5.40;62.90;;;;;;5093861;28;20093;-61
2022/01/15 11:07:17;;;;;;;3.40;2.50;;;5.40;62.90;;;;;;5093568;28;20036;-61
2022/01/15 11:09:44;;;;;;;4.15;2.67;;;5.40;63.00;;;;;;5089467;28;20089;-61
2022/01/15 11:12:11;;;;;;;4.60;2.70;;;5.50;63.10;;;;;;5092692;28;20360;-61
2022/01/15 11:14:37;;;;;;;3.58;2.60;;;5.50;63.50;;;;;;5082102;28;20027;-61
2022/01/15 11:17:04;;;;;;;3.20;2.20;;;5.50;63.60;;;;;;5090534;28;20379;-61
2022/01/15 11:19:31;;;;;;;3.38;2.50;;;5.50;63.60;;;;;;5093100;28;20031;-61
2022/01/15 11:21:58;;;;;;;2.92;2.38;;;5.50;63.60;;;;;;5093101;28;20055;-61
2022/01/15 11:24:23;;;;;;;3.38;2.30;;;5.50;63.80;;;;;;5083823;28;20027;-61
2022/01/15 11:26:57;;;;;;;3.75;2.60;;;5.50;63.90;;;;;;5083292;28;20111;-61
2022/01/15 11:29:23;;;;;;;2.95;2.40;;;5.50;64.10;;;;;;5093591;28;20035;-61
2022/01/15 11:32:00;;;;;;;3.17;2.30;;;5.50;64.30;;;;;;5099788;28;20059;-61
2022/01/15 11:34:27;;;;;;;3.30;2.50;;;5.40;64.50;;;;;;5094990;28;20024;-60
2022/01/15 11:36:53;;;;;;;4.20;3.00;;;5.40;64.60;;;;;;5093563;28;20043;-61
2022/01/15 11:39:30;;;;;;;2.90;2.47;;;5.40;64.70;;;;;;5093101;28;20028;-61
2022/01/15 11:41:56;;;;;;;3.75;2.60;;;5.40;64.40;;;;;;5093182;28;20036;-61
2022/01/15 11:44:35;;;;;;;3.35;2.42;;;5.40;64.30;;;;;;5083886;28;20074;-61
2022/01/15 11:47:17;;;;;;;3.00;2.58;;;5.40;64.20;;;;;;5093161;28;20418;-61
2022/01/15 11:49:49;;;;;;;2.38;2.17;;;5.40;64.10;;;;;;5092762;28;20024;-61
2022/01/15 11:52:14;;;;;;;3.30;2.20;;;5.40;64.20;;;;;;5093325;28;20131;-60
2022/01/15 11:54:49;;;;;;;4.32;1.98;;;5.40;64.20;;;;;;5088331;28;20095;-61
2022/01/15 11:57:26;;;;;;;3.20;2.30;;;5.40;64.20;;;;;;5085851;28;20082;-61
2022/01/15 11:59:53;;;;;;;1.73;1.65;;;5.40;64.40;;;;;;5090631;28;20028;-61
2022/01/15 12:02:27;;;;;;;2.35;1.80;;;5.30;64.40;;;;;;5086515;28;20484;-60
2022/01/15 12:04:53;;;;;;;2.28;1.90;;;5.40;64.60;;;;;;5094540;28;20016;-61
2022/01/15 12:07:20;;;;;;;1.98;1.77;;;5.30;64.60;;;;;;5090232;28;20020;-61
2022/01/15 12:09:51;;;;;;;2.60;1.90;;;5.30;64.70;;;;;;5093089;28;20488;-61
2022/01/15 12:12:20;;;;;;;2.80;2.60;;;5.30;65.00;;;;;;5092703;28;20103;-61
2022/01/15 12:15:10;;;;;;;2.85;2.05;;;5.30;65.20;;;;;;5092708;28;20036;-61
2022/01/15 12:17:46;;;;;;;3.72;2.35;;;5.30;64.70;;;;;;5087122;28;20029;-61
2022/01/15 12:20:19;;;;;;;2.60;2.38;;;5.30;64.70;;;;;;5090828;28;20026;-61
2022/01/15 12:22:48;;;;;;;3.78;2.65;;;5.30;64.60;;;;;;5091898;28;20035;-61
2022/01/15 12:25:16;;;;;;;2.97;2.42;;;5.30;64.50;;;;;;5092186;28;20028;-61
2022/01/15 12:28:03;;;;;;;2.25;2.10;;;5.30;64.70;;;;;;5092664;28;20126;-61
2022/01/15 12:30:31;;;;;;;2.63;2.22;;;5.30;64.70;;;;;;5092975;28;20027;-61
2022/01/15 12:33:00;;;;;;;4.22;2.88;;;5.30;64.70;;;;;;5100320;28;20028;-60
2022/01/15 12:35:28;;;;;;;3.47;2.40;;;5.30;64.70;;;;;;5091843;28;20103;-61
2022/01/15 12:38:08;;;;;;;2.90;2.00;;;5.30;65.20;;;;;;5092680;28;20025;-60
2022/01/15 12:40:38;;;;;;;3.72;2.40;;;5.30;65.50;;;;;;5092958;28;20110;-61
2022/01/15 12:43:10;;;;;;;2.30;2.00;;;5.20;65.70;;;;;;5092931;28;20020;-61
2022/01/15 12:45:37;;;;;;;3.03;2.05;;;5.20;66.10;;;;;;5092596;28;20044;-61
2022/01/15 12:48:04;;;;;;;2.00;1.80;;;5.20;66.80;;;;;;5092502;28;20024;-61
2022/01/15 12:50:52;;;;;;;2.63;2.08;;;5.10;67.30;;;;;;5092412;28;20016;-60
2022/01/15 12:53:20;;;;;;;3.25;2.30;;;5.10;67.80;;;;;;5060268;28;20040;-61
2022/01/15 12:55:45;;;;;;;2.55;2.10;;;5.00;68.00;;;;;;5091265;28;20028;-60
2022/01/15 12:58:15;;;;;;;2.30;2.10;;;4.90;68.90;;;;;;5092445;28;20032;-61
2022/01/15 13:00:41;;;;;;;2.35;2.15;;;4.90;69.70;;;;;;5092778;28;20024;-61
2022/01/15 13:03:10;;;;;;;2.38;2.20;;;4.80;70.30;;;;;;5095232;28;20067;-60
2022/01/15 13:05:42;;;;;;;2.30;1.98;;;4.70;70.80;;;;;;5091071;28;20028;-60
2022/01/15 13:08:11;;;;;;;2.42;2.20;;;4.70;71.30;;;;;;5091868;28;20105;-60
2022/01/15 13:13:33;;;;;;;2.95;1.95;;;4.60;72.30;;;;;;5095690;28;20020;-61
2022/01/15 13:16:04;;;;;;;3.55;2.40;;;4.50;72.70;;;;;;5095674;28;20024;-60
2022/01/15 13:18:36;;;;;;;3.03;2.13;;;4.40;72.80;;;;;;5095857;28;20024;-61
2022/01/15 13:21:04;;;;;;;3.38;2.35;;;4.40;73.10;;;;;;5088149;28;20059;-61